sensor_id;sensor_type;location;lat;lon;timestamp;pressure;altitude;pressure_sealevel;temperature;humidity
75815;BME280;70031;45.570;14.228;2023-05-25T00:03:49;97028.56;;;10.63;100.00
75815;BME280;70031;45.570;14.228;2023-05-25T00:08:17;97033.16;;;10.63;100.00
75815;BME280;70031;45.570;14.228;2023-05-25T00:10:21;97034.75;;;10.64;100.00
75815;BME280;70031;45.570;14.228;2023-05-25T00:14:33;97031.72;;;10.41;100.00
75815;BME280;70031;45.570;14.228;2023-05-25T00:19:20;97041.94;;;10.45;100.00
75815;BME280;70031;45.570;14.228;2023-05-25T00:21:30;97036.78;;;10.48;100.00
75815;BME280;70031;45.570;14.228;2023-05-25T00:23:34;97042.44;;;10.47;100.00
75815;BME280;70031;45.570;14.228;2023-05-25T00:25:49;97031.25;;;10.34;100.00
75815;BME280;70031;45.570;14.228;2023-05-25T00:30:50;97051.31;;;10.47;100.00
75815;BME280;70031;45.570;14.228;2023-05-25T00:33:03;97043.28;;;10.42;100.00
75815;BME280;70031;45.570;14.228;2023-05-25T00:35:22;97055.91;;;10.41;100.00
75815;BME280;70031;45.570;14.228;2023-05-25T00:37:27;97062.16;;;10.37;100.00
75815;BME280;70031;45.570;14.228;2023-05-25T00:39:45;97062.19;;;10.32;100.00
75815;BME280;70031;45.570;14.228;2023-05-25T00:41:48;97059.69;;;10.40;100.00
75815;BME280;70031;45.570;14.228;2023-05-25T00:43:54;97060.00;;;10.39;100.00
75815;BME280;70031;45.570;14.228;2023-05-25T00:46:19;97054.53;;;10.49;100.00
75815;BME280;70031;45.570;14.228;2023-05-25T00:48:26;97062.97;;;10.37;100.00
75815;BME280;70031;45.570;14.228;2023-05-25T00:50:47;97062.59;;;10.49;100.00
75815;BME280;70031;45.570;14.228;2023-05-25T00:53:28;97046.72;;;10.48;100.00
75815;BME280;70031;45.570;14.228;2023-05-25T00:58:06;97057.75;;;10.51;100.00
75815;BME280;70031;45.570;14.228;2023-05-25T01:00:08;97065.28;;;10.49;100.00
75815;BME280;70031;45.570;14.228;2023-05-25T01:02:20;97071.94;;;10.57;100.00
75815;BME280;70031;45.570;14.228;2023-05-25T01:04:52;97060.63;;;10.60;100.00
75815;BME280;70031;45.570;14.228;2023-05-25T01:06:57;97060.09;;;10.58;100.00
75815;BME280;70031;45.570;14.228;2023-05-25T01:09:07;97057.97;;;10.55;100.00
75815;BME280;70031;45.570;14.228;2023-05-25T01:11:27;97067.97;;;10.49;100.00
75815;BME280;70031;45.570;14.228;2023-05-25T01:13:28;97065.63;;;10.43;100.00
75815;BME280;70031;45.570;14.228;2023-05-25T01:15:31;97063.75;;;10.43;100.00
75815;BME280;70031;45.570;14.228;2023-05-25T01:17:38;97053.59;;;10.30;100.00
75815;BME280;70031;45.570;14.228;2023-05-25T01:19:38;97061.72;;;10.20;100.00
75815;BME280;70031;45.570;14.228;2023-05-25T01:26:12;97068.44;;;10.22;100.00
75815;BME280;70031;45.570;14.228;2023-05-25T01:31:34;97070.06;;;10.23;100.00
75815;BME280;70031;45.570;14.228;2023-05-25T01:33:44;97068.81;;;10.05;100.00
75815;BME280;70031;45.570;14.228;2023-05-25T01:35:57;97065.53;;;10.08;100.00
75815;BME280;70031;45.570;14.228;2023-05-25T01:40:07;97081.94;;;10.12;100.00
75815;BME280;70031;45.570;14.228;2023-05-25T01:42:08;97069.31;;;10.12;100.00
75815;BME280;70031;45.570;14.228;2023-05-25T01:44:17;97081.38;;;10.15;100.00
75815;BME280;70031;45.570;14.228;2023-05-25T01:46:57;97074.09;;;10.21;100.00
75815;BME280;70031;45.570;14.228;2023-05-25T01:54:20;97078.84;;;9.90;100.00
75815;BME280;70031;45.570;14.228;2023-05-25T01:56:23;97090.13;;;9.92;100.00
75815;BME280;70031;45.570;14.228;2023-05-25T01:58:51;97095.25;;;9.88;100.00
75815;BME280;70031;45.570;14.228;2023-05-25T02:01:07;97090.22;;;9.76;100.00
75815;BME280;70031;45.570;14.228;2023-05-25T02:03:17;97092.91;;;9.76;100.00
75815;BME280;70031;45.570;14.228;2023-05-25T02:05:22;97096.13;;;9.78;100.00
75815;BME280;70031;45.570;14.228;2023-05-25T02:07:22;97098.22;;;9.81;100.00
75815;BME280;70031;45.570;14.228;2023-05-25T02:09:26;97098.81;;;9.78;100.00
75815;BME280;70031;45.570;14.228;2023-05-25T02:11:33;97102.81;;;9.76;100.00
75815;BME280;70031;45.570;14.228;2023-05-25T02:13:52;97104.19;;;9.73;100.00
75815;BME280;70031;45.570;14.228;2023-05-25T02:15:55;97091.94;;;9.52;100.00
75815;BME280;70031;45.570;14.228;2023-05-25T02:18:16;97099.16;;;9.62;100.00
75815;BME280;70031;45.570;14.228;2023-05-25T02:20:16;97097.53;;;9.61;100.00
75815;BME280;70031;45.570;14.228;2023-05-25T02:22:33;97095.38;;;9.57;100.00
75815;BME280;70031;45.570;14.228;2023-05-25T02:24:34;97107.47;;;9.60;100.00
75815;BME280;70031;45.570;14.228;2023-05-25T02:26:38;97101.28;;;9.60;100.00
75815;BME280;70031;45.570;14.228;2023-05-25T02:28:41;97103.66;;;9.71;100.00
75815;BME280;70031;45.570;14.228;2023-05-25T02:30:59;97106.66;;;9.60;100.00
75815;BME280;70031;45.570;14.228;2023-05-25T02:32:59;97095.16;;;9.54;100.00
75815;BME280;70031;45.570;14.228;2023-05-25T02:35:26;97101.38;;;9.39;100.00
75815;BME280;70031;45.570;14.228;2023-05-25T02:37:29;97101.13;;;9.36;100.00
75815;BME280;70031;45.570;14.228;2023-05-25T02:39:29;97104.06;;;9.44;100.00
75815;BME280;70031;45.570;14.228;2023-05-25T02:41:36;97100.59;;;9.23;100.00
75815;BME280;70031;45.570;14.228;2023-05-25T02:43:36;97108.94;;;9.27;100.00
75815;BME280;70031;45.570;14.228;2023-05-25T02:45:49;97106.78;;;9.24;100.00
75815;BME280;70031;45.570;14.228;2023-05-25T02:48:02;97097.94;;;9.13;100.00
75815;BME280;70031;45.570;14.228;2023-05-25T02:50:11;97112.94;;;9.24;100.00
75815;BME280;70031;45.570;14.228;2023-05-25T02:52:17;97113.19;;;9.33;100.00
75815;BME280;70031;45.570;14.228;2023-05-25T02:56:46;97106.75;;;9.34;100.00
75815;BME280;70031;45.570;14.228;2023-05-25T02:58:46;97109.19;;;9.31;100.00
75815;BME280;70031;45.570;14.228;2023-05-25T03:00:56;97112.34;;;9.43;100.00
75815;BME280;70031;45.570;14.228;2023-05-25T03:03:05;97111.06;;;9.30;100.00
75815;BME280;70031;45.570;14.228;2023-05-25T03:05:05;97119.94;;;9.36;100.00
75815;BME280;70031;45.570;14.228;2023-05-25T03:07:43;97116.72;;;9.23;100.00
75815;BME280;70031;45.570;14.228;2023-05-25T03:09:45;97114.59;;;9.20;100.00
75815;BME280;70031;45.570;14.228;2023-05-25T03:11:48;97120.72;;;9.31;100.00
75815;BME280;70031;45.570;14.228;2023-05-25T03:14:16;97119.44;;;9.08;100.00
75815;BME280;70031;45.570;14.228;2023-05-25T03:16:23;97122.66;;;9.05;100.00
75815;BME280;70031;45.570;14.228;2023-05-25T03:18:31;97128.03;;;9.05;100.00
75815;BME280;70031;45.570;14.228;2023-05-25T03:20:43;97135.78;;;9.17;100.00
75815;BME280;70031;45.570;14.228;2023-05-25T03:22:44;97135.03;;;8.91;100.00
75815;BME280;70031;45.570;14.228;2023-05-25T03:25:15;97145.75;;;9.01;100.00
75815;BME280;70031;45.570;14.228;2023-05-25T03:27:21;97139.84;;;8.99;100.00
75815;BME280;70031;45.570;14.228;2023-05-25T03:29:21;97143.59;;;8.98;100.00
75815;BME280;70031;45.570;14.228;2023-05-25T03:31:30;97144.13;;;9.05;100.00
75815;BME280;70031;45.570;14.228;2023-05-25T03:33:40;97146.31;;;9.03;100.00
75815;BME280;70031;45.570;14.228;2023-05-25T03:35:40;97150.59;;;8.94;100.00
75815;BME280;70031;45.570;14.228;2023-05-25T03:37:40;97158.09;;;9.07;100.00
75815;BME280;70031;45.570;14.228;2023-05-25T03:39:41;97141.97;;;9.07;100.00
75815;BME280;70031;45.570;14.228;2023-05-25T03:43:53;97150.03;;;9.22;100.00
75815;BME280;70031;45.570;14.228;2023-05-25T03:46:08;97146.00;;;9.20;100.00
75815;BME280;70031;45.570;14.228;2023-05-25T03:48:21;97151.66;;;9.13;100.00
75815;BME280;70031;45.570;14.228;2023-05-25T03:50:24;97148.94;;;9.18;100.00
75815;BME280;70031;45.570;14.228;2023-05-25T03:52:34;97157.81;;;9.24;100.00
75815;BME280;70031;45.570;14.228;2023-05-25T03:54:34;97160.75;;;9.22;100.00
75815;BME280;70031;45.570;14.228;2023-05-25T03:56:34;97161.31;;;9.04;100.00
75815;BME280;70031;45.570;14.228;2023-05-25T03:58:38;97158.09;;;9.07;100.00
75815;BME280;70031;45.570;14.228;2023-05-25T04:00:48;97161.03;;;9.21;100.00
75815;BME280;70031;45.570;14.228;2023-05-25T04:03:05;97162.91;;;9.15;100.00
75815;BME280;70031;45.570;14.228;2023-05-25T04:05:06;97164.53;;;9.21;100.00
75815;BME280;70031;45.570;14.228;2023-05-25T04:07:25;97173.09;;;9.39;100.00
75815;BME280;70031;45.570;14.228;2023-05-25T04:09:26;97169.38;;;9.14;100.00
75815;BME280;70031;45.570;14.228;2023-05-25T04:11:29;97171.50;;;9.17;100.00
75815;BME280;70031;45.570;14.228;2023-05-25T04:13:32;97175.78;;;9.28;100.00
75815;BME280;70031;45.570;14.228;2023-05-25T04:15:39;97165.59;;;9.36;100.00
75815;BME280;70031;45.570;14.228;2023-05-25T04:17:45;97170.94;;;9.36;100.00
75815;BME280;70031;45.570;14.228;2023-05-25T04:19:50;97167.16;;;9.47;100.00
75815;BME280;70031;45.570;14.228;2023-05-25T04:21:51;97188.13;;;9.45;100.00
75815;BME280;70031;45.570;14.228;2023-05-25T04:23:51;97172.53;;;9.42;100.00
75815;BME280;70031;45.570;14.228;2023-05-25T04:25:52;97177.66;;;9.43;100.00
75815;BME280;70031;45.570;14.228;2023-05-25T04:27:52;97181.91;;;9.49;100.00
75815;BME280;70031;45.570;14.228;2023-05-25T04:30:07;97174.41;;;9.46;100.00
75815;BME280;70031;45.570;14.228;2023-05-25T04:32:25;97177.84;;;9.72;100.00
75815;BME280;70031;45.570;14.228;2023-05-25T04:34:28;97181.31;;;9.68;100.00
75815;BME280;70031;45.570;14.228;2023-05-25T04:36:31;97182.91;;;9.79;100.00
75815;BME280;70031;45.570;14.228;2023-05-25T04:38:47;97196.84;;;9.91;100.00
75815;BME280;70031;45.570;14.228;2023-05-25T04:41:00;97198.78;;;9.75;100.00
75815;BME280;70031;45.570;14.228;2023-05-25T04:43:20;97193.06;;;10.02;100.00
75815;BME280;70031;45.570;14.228;2023-05-25T04:45:26;97197.41;;;9.93;100.00
75815;BME280;70031;45.570;14.228;2023-05-25T04:47:34;97190.94;;;9.84;100.00
75815;BME280;70031;45.570;14.228;2023-05-25T04:51:51;97192.84;;;9.83;100.00
75815;BME280;70031;45.570;14.228;2023-05-25T04:53:51;97200.38;;;9.81;100.00
75815;BME280;70031;45.570;14.228;2023-05-25T04:56:13;97207.25;;;10.08;100.00
75815;BME280;70031;45.570;14.228;2023-05-25T04:58:14;97198.34;;;10.18;100.00
75815;BME280;70031;45.570;14.228;2023-05-25T05:00:14;97205.53;;;10.43;100.00
75815;BME280;70031;45.570;14.228;2023-05-25T05:02:16;97200.09;;;10.48;100.00
75815;BME280;70031;45.570;14.228;2023-05-25T05:04:20;97206.56;;;10.47;100.00
75815;BME280;70031;45.570;14.228;2023-05-25T05:06:32;97203.78;;;10.62;100.00
75815;BME280;70031;45.570;14.228;2023-05-25T05:08:33;97204.88;;;10.61;100.00
75815;BME280;70031;45.570;14.228;2023-05-25T05:10:33;97211.88;;;10.62;100.00
75815;BME280;70031;45.570;14.228;2023-05-25T05:12:34;97214.19;;;10.74;100.00
75815;BME280;70031;45.570;14.228;2023-05-25T05:14:43;97215.28;;;10.73;100.00
75815;BME280;70031;45.570;14.228;2023-05-25T05:16:44;97206.63;;;10.76;100.00
75815;BME280;70031;45.570;14.228;2023-05-25T05:18:56;97201.25;;;10.76;100.00
75815;BME280;70031;45.570;14.228;2023-05-25T05:23:12;97202.22;;;11.24;100.00
75815;BME280;70031;45.570;14.228;2023-05-25T05:25:12;97206.00;;;11.23;100.00
75815;BME280;70031;45.570;14.228;2023-05-25T05:27:29;97207.63;;;11.53;100.00
75815;BME280;70031;45.570;14.228;2023-05-25T05:29:29;97214.47;;;11.40;100.00
75815;BME280;70031;45.570;14.228;2023-05-25T05:31:43;97211.44;;;11.47;100.00
75815;BME280;70031;45.570;14.228;2023-05-25T05:33:43;97211.13;;;11.53;100.00
75815;BME280;70031;45.570;14.228;2023-05-25T05:35:46;97210.16;;;11.68;100.00
75815;BME280;70031;45.570;14.228;2023-05-25T05:37:50;97217.09;;;12.03;100.00
75815;BME280;70031;45.570;14.228;2023-05-25T05:40:06;97216.41;;;12.17;100.00
75815;BME280;70031;45.570;14.228;2023-05-25T05:44:19;97212.63;;;12.93;97.16
75815;BME280;70031;45.570;14.228;2023-05-25T05:46:36;97213.91;;;13.14;94.42
75815;BME280;70031;45.570;14.228;2023-05-25T05:48:39;97220.72;;;13.12;96.36
75815;BME280;70031;45.570;14.228;2023-05-25T05:50:39;97216.31;;;13.48;95.38
75815;BME280;70031;45.570;14.228;2023-05-25T05:52:39;97211.06;;;13.57;94.69
75815;BME280;70031;45.570;14.228;2023-05-25T05:55:02;97207.97;;;14.05;91.15
75815;BME280;70031;45.570;14.228;2023-05-25T05:57:04;97223.00;;;14.39;89.62
75815;BME280;70031;45.570;14.228;2023-05-25T05:59:31;97224.03;;;14.79;85.97
75815;BME280;70031;45.570;14.228;2023-05-25T06:01:31;97221.81;;;15.17;84.27
75815;BME280;70031;45.570;14.228;2023-05-25T06:03:44;97221.06;;;15.79;81.77
75815;BME280;70031;45.570;14.228;2023-05-25T06:05:44;97228.25;;;16.06;81.93
75815;BME280;70031;45.570;14.228;2023-05-25T06:07:50;97229.47;;;17.78;75.60
75815;BME280;70031;45.570;14.228;2023-05-25T06:10:01;97235.66;;;19.14;68.74
75815;BME280;70031;45.570;14.228;2023-05-25T06:12:10;97229.28;;;18.59;72.39
75815;BME280;70031;45.570;14.228;2023-05-25T06:14:11;97234.16;;;21.17;61.79
75815;BME280;70031;45.570;14.228;2023-05-25T06:16:14;97237.44;;;22.38;57.42
75815;BME280;70031;45.570;14.228;2023-05-25T06:18:15;97244.94;;;23.27;56.09
75815;BME280;70031;45.570;14.228;2023-05-25T06:20:30;97239.38;;;22.53;58.95
75815;BME280;70031;45.570;14.228;2023-05-25T06:22:37;97235.44;;;23.82;54.62
75815;BME280;70031;45.570;14.228;2023-05-25T06:24:50;97227.53;;;22.33;56.41
75815;BME280;70031;45.570;14.228;2023-05-25T06:29:04;97223.50;;;22.62;56.53
75815;BME280;70031;45.570;14.228;2023-05-25T06:31:05;97227.94;;;23.79;52.33
75815;BME280;70031;45.570;14.228;2023-05-25T06:33:11;97226.06;;;23.64;52.91
75815;BME280;70031;45.570;14.228;2023-05-25T06:35:33;97226.50;;;23.47;52.66
75815;BME280;70031;45.570;14.228;2023-05-25T06:37:46;97227.47;;;21.70;58.27
75815;BME280;70031;45.570;14.228;2023-05-25T06:39:55;97227.84;;;22.63;58.83
75815;BME280;70031;45.570;14.228;2023-05-25T06:42:02;97233.66;;;23.32;55.77
75815;BME280;70031;45.570;14.228;2023-05-25T06:44:02;97234.81;;;23.12;56.54
75815;BME280;70031;45.570;14.228;2023-05-25T06:46:08;97230.91;;;21.11;62.52
75815;BME280;70031;45.570;14.228;2023-05-25T06:51:16;97231.84;;;23.01;58.46
75815;BME280;70031;45.570;14.228;2023-05-25T06:53:19;97234.97;;;24.23;56.14
75815;BME280;70031;45.570;14.228;2023-05-25T06:55:24;97242.41;;;24.94;53.16
75815;BME280;70031;45.570;14.228;2023-05-25T06:59:37;97235.13;;;26.07;49.35
75815;BME280;70031;45.570;14.228;2023-05-25T07:01:37;97239.94;;;24.36;52.66
75815;BME280;70031;45.570;14.228;2023-05-25T07:03:47;97235.59;;;25.45;51.90
75815;BME280;70031;45.570;14.228;2023-05-25T07:06:06;97233.94;;;25.37;48.87
75815;BME280;70031;45.570;14.228;2023-05-25T07:08:16;97231.94;;;25.04;50.02
75815;BME280;70031;45.570;14.228;2023-05-25T07:10:36;97233.44;;;25.01;52.36
75815;BME280;70031;45.570;14.228;2023-05-25T07:12:42;97234.09;;;24.64;52.01
75815;BME280;70031;45.570;14.228;2023-05-25T07:15:18;97236.13;;;24.22;53.35
75815;BME280;70031;45.570;14.228;2023-05-25T07:17:35;97228.28;;;24.43;56.88
75815;BME280;70031;45.570;14.228;2023-05-25T07:24:56;97228.66;;;25.92;49.32
75815;BME280;70031;45.570;14.228;2023-05-25T07:30:06;97229.44;;;26.88;52.01
75815;BME280;70031;45.570;14.228;2023-05-25T07:32:07;97220.94;;;27.14;44.54
75815;BME280;70031;45.570;14.228;2023-05-25T07:38:23;97222.38;;;27.74;38.93
75815;BME280;70031;45.570;14.228;2023-05-25T07:40:23;97222.75;;;27.80;39.63
75815;BME280;70031;45.570;14.228;2023-05-25T07:42:41;97218.06;;;25.27;46.15
75815;BME280;70031;45.570;14.228;2023-05-25T07:45:01;97218.75;;;25.50;42.00
75815;BME280;70031;45.570;14.228;2023-05-25T07:47:13;97216.44;;;26.33;40.12
75815;BME280;70031;45.570;14.228;2023-05-25T07:49:25;97222.91;;;26.52;40.38
75815;BME280;70031;45.570;14.228;2023-05-25T07:51:32;97227.59;;;26.03;45.52
75815;BME280;70031;45.570;14.228;2023-05-25T07:53:39;97227.56;;;26.00;42.26
75815;BME280;70031;45.570;14.228;2023-05-25T07:55:41;97220.97;;;26.12;37.10
75815;BME280;70031;45.570;14.228;2023-05-25T07:57:51;97226.56;;;25.82;45.22
75815;BME280;70031;45.570;14.228;2023-05-25T07:59:57;97233.63;;;24.59;46.92
75815;BME280;70031;45.570;14.228;2023-05-25T08:02:07;97238.22;;;24.05;43.95
75815;BME280;70031;45.570;14.228;2023-05-25T08:06:59;97228.25;;;25.56;42.28
75815;BME280;70031;45.570;14.228;2023-05-25T08:09:03;97230.16;;;24.65;43.09
75815;BME280;70031;45.570;14.228;2023-05-25T08:11:25;97228.13;;;24.59;43.20
75815;BME280;70031;45.570;14.228;2023-05-25T08:13:44;97228.97;;;23.71;43.13
75815;BME280;70031;45.570;14.228;2023-05-25T08:29:47;97241.50;;;23.69;45.42
75815;BME280;70031;45.570;14.228;2023-05-25T08:31:48;97239.13;;;24.13;48.96
75815;BME280;70031;45.570;14.228;2023-05-25T08:34:26;97238.72;;;24.11;44.08
75815;BME280;70031;45.570;14.228;2023-05-25T08:36:31;97240.50;;;24.46;45.05
75815;BME280;70031;45.570;14.228;2023-05-25T08:38:35;97235.88;;;22.72;46.20
75815;BME280;70031;45.570;14.228;2023-05-25T08:45:14;97244.38;;;24.41;45.07
75815;BME280;70031;45.570;14.228;2023-05-25T08:47:48;97246.84;;;24.04;44.58
75815;BME280;70031;45.570;14.228;2023-05-25T08:50:23;97241.94;;;23.94;42.25
75815;BME280;70031;45.570;14.228;2023-05-25T08:56:54;97228.78;;;26.06;42.94
75815;BME280;70031;45.570;14.228;2023-05-25T09:02:00;97236.50;;;24.66;42.65
75815;BME280;70031;45.570;14.228;2023-05-25T09:04:14;97238.88;;;24.68;41.88
75815;BME280;70031;45.570;14.228;2023-05-25T09:06:16;97239.09;;;25.08;43.60
75815;BME280;70031;45.570;14.228;2023-05-25T09:08:26;97241.53;;;25.81;45.62
75815;BME280;70031;45.570;14.228;2023-05-25T09:10:32;97237.56;;;25.14;38.71
75815;BME280;70031;45.570;14.228;2023-05-25T09:12:49;97245.75;;;25.07;42.07
75815;BME280;70031;45.570;14.228;2023-05-25T09:15:05;97256.31;;;24.79;46.58
75815;BME280;70031;45.570;14.228;2023-05-25T09:17:32;97246.28;;;24.41;43.28
75815;BME280;70031;45.570;14.228;2023-05-25T09:21:46;97251.50;;;25.25;41.49
75815;BME280;70031;45.570;14.228;2023-05-25T09:23:49;97246.44;;;24.74;41.43
75815;BME280;70031;45.570;14.228;2023-05-25T09:25:53;97239.72;;;25.28;40.99
75815;BME280;70031;45.570;14.228;2023-05-25T09:28:07;97253.19;;;24.80;44.03
75815;BME280;70031;45.570;14.228;2023-05-25T09:30:10;97253.63;;;24.56;46.41
75815;BME280;70031;45.570;14.228;2023-05-25T09:32:19;97252.22;;;24.92;50.14
75815;BME280;70031;45.570;14.228;2023-05-25T09:34:35;97253.56;;;24.52;42.10
75815;BME280;70031;45.570;14.228;2023-05-25T09:36:35;97251.31;;;24.84;44.32
75815;BME280;70031;45.570;14.228;2023-05-25T09:38:40;97245.31;;;25.35;41.05
75815;BME280;70031;45.570;14.228;2023-05-25T09:42:47;97244.47;;;25.65;43.32
75815;BME280;70031;45.570;14.228;2023-05-25T09:44:47;97248.97;;;24.86;40.26
75815;BME280;70031;45.570;14.228;2023-05-25T09:46:57;97245.41;;;25.42;40.09
75815;BME280;70031;45.570;14.228;2023-05-25T09:49:06;97248.84;;;25.66;39.17
75815;BME280;70031;45.570;14.228;2023-05-25T09:51:07;97246.00;;;24.72;45.17
75815;BME280;70031;45.570;14.228;2023-05-25T09:53:17;97251.66;;;25.39;41.90
75815;BME280;70031;45.570;14.228;2023-05-25T09:55:20;97252.75;;;24.75;42.51
75815;BME280;70031;45.570;14.228;2023-05-25T09:57:21;97249.91;;;25.24;46.31
75815;BME280;70031;45.570;14.228;2023-05-25T09:59:22;97253.69;;;25.12;39.65
75815;BME280;70031;45.570;14.228;2023-05-25T10:01:37;97252.75;;;24.29;41.23
75815;BME280;70031;45.570;14.228;2023-05-25T10:08:05;97252.16;;;26.16;39.77
75815;BME280;70031;45.570;14.228;2023-05-25T10:12:21;97244.66;;;26.64;42.33
75815;BME280;70031;45.570;14.228;2023-05-25T10:14:26;97247.22;;;26.39;39.36
75815;BME280;70031;45.570;14.228;2023-05-25T10:19:36;97230.63;;;25.91;41.20
75815;BME280;70031;45.570;14.228;2023-05-25T10:21:50;97230.38;;;25.36;41.42
75815;BME280;70031;45.570;14.228;2023-05-25T10:26:39;97234.00;;;25.10;40.68
75815;BME280;70031;45.570;14.228;2023-05-25T10:29:00;97224.69;;;25.22;41.28
75815;BME280;70031;45.570;14.228;2023-05-25T10:31:04;97225.66;;;25.37;41.74
75815;BME280;70031;45.570;14.228;2023-05-25T10:33:22;97232.41;;;25.09;42.99
75815;BME280;70031;45.570;14.228;2023-05-25T10:35:23;97227.72;;;25.43;45.70
75815;BME280;70031;45.570;14.228;2023-05-25T10:37:33;97235.78;;;25.59;41.10
75815;BME280;70031;45.570;14.228;2023-05-25T10:39:54;97231.84;;;25.27;42.02
75815;BME280;70031;45.570;14.228;2023-05-25T10:46:15;97232.59;;;24.97;45.71
75815;BME280;70031;45.570;14.228;2023-05-25T10:48:19;97232.97;;;24.96;41.40
75815;BME280;70031;45.570;14.228;2023-05-25T10:50:41;97230.66;;;25.58;45.04
75815;BME280;70031;45.570;14.228;2023-05-25T10:53:19;97227.44;;;25.22;41.95
75815;BME280;70031;45.570;14.228;2023-05-25T10:57:31;97221.41;;;25.09;42.79
75815;BME280;70031;45.570;14.228;2023-05-25T10:59:34;97228.63;;;25.88;43.44
75815;BME280;70031;45.570;14.228;2023-05-25T11:01:48;97224.56;;;25.75;46.77
75815;BME280;70031;45.570;14.228;2023-05-25T11:04:22;97220.91;;;25.67;45.11
75815;BME280;70031;45.570;14.228;2023-05-25T11:09:01;97220.25;;;25.81;39.40
75815;BME280;70031;45.570;14.228;2023-05-25T11:11:11;97221.00;;;25.74;41.39
75815;BME280;70031;45.570;14.228;2023-05-25T11:18:48;97218.53;;;25.32;44.89
75815;BME280;70031;45.570;14.228;2023-05-25T11:21:24;97211.19;;;25.81;40.19
75815;BME280;70031;45.570;14.228;2023-05-25T11:26:32;97212.66;;;25.34;45.69
75815;BME280;70031;45.570;14.228;2023-05-25T11:28:33;97210.41;;;25.13;43.23
75815;BME280;70031;45.570;14.228;2023-05-25T11:30:42;97211.50;;;25.72;40.21
75815;BME280;70031;45.570;14.228;2023-05-25T11:32:52;97204.75;;;25.66;40.65
75815;BME280;70031;45.570;14.228;2023-05-25T11:35:20;97202.28;;;25.94;42.45
75815;BME280;70031;45.570;14.228;2023-05-25T11:37:22;97207.22;;;26.19;38.27
75815;BME280;70031;45.570;14.228;2023-05-25T11:41:36;97197.38;;;26.21;41.46
75815;BME280;70031;45.570;14.228;2023-05-25T11:46:40;97190.34;;;25.46;42.08
75815;BME280;70031;45.570;14.228;2023-05-25T11:48:51;97189.22;;;25.88;42.65
75815;BME280;70031;45.570;14.228;2023-05-25T11:51:05;97189.16;;;26.28;38.71
75815;BME280;70031;45.570;14.228;2023-05-25T11:55:48;97183.59;;;25.73;47.99
75815;BME280;70031;45.570;14.228;2023-05-25T12:00:24;97174.78;;;26.05;43.17
75815;BME280;70031;45.570;14.228;2023-05-25T12:02:44;97173.16;;;26.41;42.37
75815;BME280;70031;45.570;14.228;2023-05-25T12:05:03;97170.13;;;26.13;38.50
75815;BME280;70031;45.570;14.228;2023-05-25T12:07:06;97173.81;;;25.83;41.40
75815;BME280;70031;45.570;14.228;2023-05-25T12:09:26;97168.81;;;25.96;41.24
75815;BME280;70031;45.570;14.228;2023-05-25T12:13:48;97162.25;;;26.11;41.79
75815;BME280;70031;45.570;14.228;2023-05-25T12:16:00;97167.06;;;26.80;37.17
75815;BME280;70031;45.570;14.228;2023-05-25T12:18:16;97155.50;;;27.36;38.68
75815;BME280;70031;45.570;14.228;2023-05-25T12:20:28;97148.72;;;26.47;40.88
75815;BME280;70031;45.570;14.228;2023-05-25T12:22:32;97146.09;;;26.72;38.54
75815;BME280;70031;45.570;14.228;2023-05-25T12:24:32;97146.59;;;26.84;43.24
75815;BME280;70031;45.570;14.228;2023-05-25T12:26:49;97155.91;;;26.58;40.34
75815;BME280;70031;45.570;14.228;2023-05-25T12:29:09;97153.75;;;25.83;40.41
75815;BME280;70031;45.570;14.228;2023-05-25T12:31:37;97154.75;;;25.67;39.20
75815;BME280;70031;45.570;14.228;2023-05-25T12:33:37;97145.16;;;26.43;43.51
75815;BME280;70031;45.570;14.228;2023-05-25T12:35:56;97144.38;;;27.19;38.71
75815;BME280;70031;45.570;14.228;2023-05-25T12:38:17;97138.50;;;27.31;42.05
75815;BME280;70031;45.570;14.228;2023-05-25T12:41:06;97140.22;;;26.73;41.07
75815;BME280;70031;45.570;14.228;2023-05-25T12:42:57;97133.34;;;27.26;44.01
75815;BME280;70031;45.570;14.228;2023-05-25T12:45:00;97137.31;;;27.25;39.61
75815;BME280;70031;45.570;14.228;2023-05-25T12:47:22;97135.34;;;27.25;38.73
75815;BME280;70031;45.570;14.228;2023-05-25T12:49:35;97131.47;;;26.64;39.40
75815;BME280;70031;45.570;14.228;2023-05-25T12:51:48;97129.59;;;26.79;43.42
75815;BME280;70031;45.570;14.228;2023-05-25T12:56:33;97123.22;;;26.68;36.87
75815;BME280;70031;45.570;14.228;2023-05-25T12:58:33;97131.63;;;26.93;38.86
75815;BME280;70031;45.570;14.228;2023-05-25T13:00:38;97125.84;;;26.43;37.18
75815;BME280;70031;45.570;14.228;2023-05-25T13:02:52;97119.19;;;27.49;39.65
75815;BME280;70031;45.570;14.228;2023-05-25T13:04:53;97117.22;;;27.53;35.15
75815;BME280;70031;45.570;14.228;2023-05-25T13:06:53;97111.44;;;26.74;38.50
75815;BME280;70031;45.570;14.228;2023-05-25T13:08:54;97117.75;;;26.75;36.42
75815;BME280;70031;45.570;14.228;2023-05-25T13:13:13;97115.66;;;26.54;38.92
75815;BME280;70031;45.570;14.228;2023-05-25T13:15:19;97106.50;;;27.15;39.88
75815;BME280;70031;45.570;14.228;2023-05-25T13:17:23;97105.03;;;27.79;41.51
75815;BME280;70031;45.570;14.228;2023-05-25T13:19:32;97094.75;;;27.86;37.49
75815;BME280;70031;45.570;14.228;2023-05-25T13:21:38;97099.09;;;28.12;36.99
75815;BME280;70031;45.570;14.228;2023-05-25T13:23:42;97105.44;;;28.16;40.50
75815;BME280;70031;45.570;14.228;2023-05-25T13:25:45;97088.78;;;27.59;37.98
75815;BME280;70031;45.570;14.228;2023-05-25T13:30:01;97090.00;;;27.58;39.18
75815;BME280;70031;45.570;14.228;2023-05-25T13:32:04;97093.94;;;28.21;40.32
75815;BME280;70031;45.570;14.228;2023-05-25T13:34:05;97087.19;;;28.51;38.13
75815;BME280;70031;45.570;14.228;2023-05-25T13:36:08;97081.19;;;28.70;37.81